createdAt,value
2019-03-31T00:35:41.031Z,1017.76
2019-03-31T00:36:40.835Z,1017.77
2019-03-31T00:37:40.762Z,1017.77
2019-03-31T00:38:40.714Z,1017.78
2019-03-31T00:39:40.598Z,1017.81
2019-03-31T00:40:40.506Z,1017.79
2019-03-31T00:41:40.428Z,1017.82
2019-03-31T00:42:40.342Z,1017.80
2019-03-31T00:43:40.255Z,1017.79
2019-03-31T00:44:40.169Z,1017.84
2019-03-31T00:45:40.082Z,1017.83
2019-03-31T00:46:39.998Z,1017.81
2019-03-31T00:47:39.921Z,1017.83
2019-03-31T00:48:39.829Z,1017.80
2019-03-31T00:49:39.745Z,1017.82
2019-03-31T00:50:39.655Z,1017.80
2019-03-31T00:51:39.584Z,1017.81
2019-03-31T00:52:39.509Z,1017.80
2019-03-31T00:53:39.406Z,1017.82
2019-03-31T00:54:39.319Z,1017.86
2019-03-31T00:55:39.242Z,1017.83
2019-03-31T00:56:39.151Z,1017.79
2019-03-31T00:57:39.080Z,1017.80
2019-03-31T00:58:38.982Z,1017.80
2019-03-31T00:59:38.903Z,1017.82
2019-03-31T01:00:38.830Z,1017.83
2019-03-31T01:01:38.740Z,1017.84
2019-03-31T01:02:38.659Z,1017.82
2019-03-31T01:03:38.575Z,1017.80
2019-03-31T01:04:38.485Z,1017.79
2019-03-31T01:05:38.407Z,1017.85
2019-03-31T01:06:38.309Z,1017.81
2019-03-31T01:07:38.252Z,1017.84
2019-03-31T01:08:38.146Z,1017.80
2019-03-31T01:09:38.066Z,1017.80
2019-03-31T01:10:37.978Z,1017.77
2019-03-31T01:11:37.898Z,1017.81
2019-03-31T01:12:37.830Z,1017.81
2019-03-31T01:13:37.724Z,1017.80
2019-03-31T01:14:37.633Z,1017.81
2019-03-31T01:15:37.570Z,1017.77
2019-03-31T01:16:37.474Z,1017.80
2019-03-31T01:17:37.404Z,1017.88
2019-03-31T01:18:37.304Z,1017.87
2019-03-31T01:19:37.218Z,1017.90
2019-03-31T01:20:37.135Z,1017.88
2019-03-31T01:21:37.047Z,1017.88
2019-03-31T01:22:36.984Z,1017.91
2019-03-31T01:23:36.884Z,1017.91
2019-03-31T01:24:36.791Z,1017.95
2019-03-31T01:25:36.713Z,1017.93
2019-03-31T01:26:36.621Z,1017.91
2019-03-31T01:27:36.569Z,1017.91
2019-03-31T01:28:36.457Z,1017.90
2019-03-31T01:29:36.381Z,1017.94
2019-03-31T01:30:36.285Z,1017.89
2019-03-31T01:31:49.391Z,1017.91
2019-03-31T01:32:36.135Z,1017.92
2019-03-31T01:33:36.033Z,1017.92
2019-03-31T01:34:35.954Z,1017.93
2019-03-31T01:35:35.865Z,1017.90
2019-03-31T01:36:35.798Z,1017.88
2019-03-31T01:37:35.720Z,1017.87
2019-03-31T01:38:35.626Z,1017.85
2019-03-31T01:39:35.538Z,1017.87
2019-03-31T01:40:35.461Z,1017.90
2019-03-31T01:41:35.362Z,1017.89
2019-03-31T01:42:35.325Z,1017.91
2019-03-31T01:43:35.208Z,1017.96
2019-03-31T01:44:35.119Z,1017.94
2019-03-31T01:45:35.028Z,1017.97
2019-03-31T01:46:34.945Z,1017.95
2019-03-31T01:47:34.859Z,1017.99
2019-03-31T01:48:34.788Z,1017.94
2019-03-31T01:49:34.703Z,1017.94
2019-03-31T01:50:34.606Z,1017.95
2019-03-31T01:51:34.532Z,1017.89
2019-03-31T01:52:34.446Z,1017.90
2019-03-31T01:53:34.371Z,1017.88
2019-03-31T01:54:34.279Z,1017.86
2019-03-31T01:55:34.197Z,1017.86
2019-03-31T01:56:34.103Z,1017.83
2019-03-31T01:57:34.020Z,1017.82
2019-03-31T01:58:33.941Z,1017.85
2019-03-31T01:59:33.847Z,1017.84
2019-03-31T02:00:33.763Z,1017.86
2019-03-31T02:01:33.684Z,1017.84
2019-03-31T02:02:33.592Z,1017.81
2019-03-31T02:03:33.531Z,1017.83
2019-03-31T02:04:33.423Z,1017.85
2019-03-31T02:05:33.352Z,1017.87
2019-03-31T02:06:33.259Z,1017.86
2019-03-31T02:07:33.173Z,1017.84
2019-03-31T02:08:33.115Z,1017.89
2019-03-31T02:09:33.011Z,1017.85
2019-03-31T02:10:33.930Z,1017.86
2019-03-31T02:11:32.841Z,1017.85
2019-03-31T02:12:32.762Z,1017.87
2019-03-31T02:13:32.700Z,1017.85
2019-03-31T02:14:32.585Z,1017.85
2019-03-31T02:15:32.503Z,1017.84
2019-03-31T02:16:32.415Z,1017.87
2019-03-31T02:17:32.406Z,1017.88
2019-03-31T02:18:32.266Z,1017.88
2019-03-31T02:19:32.175Z,1017.87
2019-03-31T02:20:32.078Z,1017.93
2019-03-31T02:21:32.000Z,1017.93
2019-03-31T02:22:31.919Z,1017.92
2019-03-31T02:23:31.839Z,1017.87
2019-03-31T02:24:31.750Z,1017.89
2019-03-31T02:25:31.653Z,1017.89
2019-03-31T02:26:31.568Z,1017.89
2019-03-31T02:27:31.491Z,1017.88
2019-03-31T02:28:31.422Z,1017.90
2019-03-31T02:29:31.321Z,1017.85
2019-03-31T02:30:31.246Z,1017.86
2019-03-31T02:31:31.157Z,1017.87
2019-03-31T02:32:31.065Z,1017.85
2019-03-31T02:33:31.004Z,1017.86
2019-03-31T02:34:30.907Z,1017.86
2019-03-31T02:35:30.828Z,1017.84
2019-03-31T02:36:30.735Z,1017.82
2019-03-31T02:37:30.669Z,1017.86
2019-03-31T02:38:30.576Z,1017.82
2019-03-31T02:39:30.483Z,1017.83
2019-03-31T02:40:30.395Z,1017.84
2019-03-31T02:41:30.315Z,1017.79
2019-03-31T02:42:30.243Z,1017.90
2019-03-31T02:43:30.146Z,1017.89
2019-03-31T02:44:30.071Z,1017.92
2019-03-31T02:45:29.974Z,1017.93
2019-03-31T02:46:29.900Z,1017.89
2019-03-31T02:47:29.818Z,1017.93
2019-03-31T02:48:29.725Z,1017.96
2019-03-31T02:49:29.643Z,1017.90
2019-03-31T02:50:29.552Z,1017.94
2019-03-31T02:51:29.478Z,1017.94
2019-03-31T02:52:29.388Z,1017.92
2019-03-31T02:53:29.299Z,1017.92
2019-03-31T02:54:29.227Z,1017.91
2019-03-31T02:55:29.136Z,1017.90
2019-03-31T02:56:29.052Z,1017.92
2019-03-31T02:57:28.979Z,1017.92
2019-03-31T02:58:28.878Z,1017.94
2019-03-31T02:59:28.803Z,1017.96
2019-03-31T03:00:28.709Z,1017.97
2019-03-31T03:01:28.624Z,1017.97
2019-03-31T03:02:41.535Z,1017.93
2019-03-31T03:03:28.453Z,1017.90
2019-03-31T03:04:28.393Z,1017.89
2019-03-31T03:05:28.285Z,1017.87
2019-03-31T03:06:28.208Z,1017.85
2019-03-31T03:07:28.112Z,1017.86
2019-03-31T03:08:28.031Z,1017.83
2019-03-31T03:09:27.959Z,1017.83
2019-03-31T03:10:27.864Z,1017.83
2019-03-31T03:11:27.783Z,1017.81
2019-03-31T03:12:27.695Z,1017.80
2019-03-31T03:13:27.599Z,1017.81
2019-03-31T03:14:27.535Z,1017.78
2019-03-31T03:15:27.454Z,1017.80
2019-03-31T03:16:27.366Z,1017.79
2019-03-31T03:17:27.276Z,1017.78
2019-03-31T03:18:27.194Z,1017.76
2019-03-31T03:19:27.125Z,1017.80
2019-03-31T03:20:27.011Z,1017.77
2019-03-31T03:21:26.931Z,1017.79
2019-03-31T03:22:26.851Z,1017.80
2019-03-31T03:23:26.771Z,1017.80
2019-03-31T03:24:26.692Z,1017.81
2019-03-31T03:25:26.597Z,1017.85
2019-03-31T03:26:26.613Z,1017.85
2019-03-31T03:27:26.422Z,1017.84
2019-03-31T03:28:26.354Z,1017.83
2019-03-31T03:29:26.276Z,1017.87
2019-03-31T03:30:26.274Z,1017.88
2019-03-31T03:31:26.102Z,1017.88
2019-03-31T03:32:26.014Z,1017.90
2019-03-31T03:33:25.911Z,1017.92
2019-03-31T03:34:25.865Z,1017.89
2019-03-31T03:35:25.746Z,1017.90
2019-03-31T03:36:25.681Z,1017.94
2019-03-31T03:37:25.590Z,1017.96
2019-03-31T03:38:25.493Z,1017.93
2019-03-31T03:39:25.426Z,1017.96
2019-03-31T03:40:25.318Z,1017.93
2019-03-31T03:41:25.246Z,1017.94
2019-03-31T03:42:25.158Z,1017.91
2019-03-31T03:43:25.080Z,1017.90
2019-03-31T03:44:24.998Z,1017.92
2019-03-31T03:45:24.905Z,1017.91
2019-03-31T03:46:24.838Z,1017.91
2019-03-31T03:47:24.729Z,1017.88
2019-03-31T03:48:24.643Z,1017.91
2019-03-31T03:49:24.588Z,1017.86
2019-03-31T03:50:24.477Z,1017.86
2019-03-31T03:51:24.390Z,1017.89
2019-03-31T03:52:24.311Z,1017.85
2019-03-31T03:53:24.227Z,1017.87
2019-03-31T03:54:24.149Z,1017.85
2019-03-31T03:55:24.054Z,1017.84
2019-03-31T03:56:28.728Z,1017.89
2019-03-31T03:57:23.887Z,1017.86
2019-03-31T03:58:23.803Z,1017.91
2019-03-31T03:59:23.736Z,1017.91
2019-03-31T04:00:23.635Z,1017.93
2019-03-31T04:01:23.577Z,1017.95
2019-03-31T04:02:23.457Z,1017.95
2019-03-31T04:03:30.541Z,1017.99
2019-03-31T04:04:23.297Z,1017.94
2019-03-31T04:05:23.221Z,1017.99
2019-03-31T04:06:23.120Z,1017.96
2019-03-31T04:07:23.039Z,1017.97
2019-03-31T04:08:22.956Z,1017.96
2019-03-31T04:09:22.884Z,1017.98
2019-03-31T04:10:22.781Z,1017.96
2019-03-31T04:11:22.703Z,1017.99
2019-03-31T04:12:22.626Z,1018.02
2019-03-31T04:13:22.527Z,1018.05
2019-03-31T04:14:22.469Z,1017.98
2019-03-31T04:15:22.359Z,1017.98
2019-03-31T04:16:22.302Z,1018.01
2019-03-31T04:17:22.196Z,1018.01
2019-03-31T04:18:22.154Z,1018.06
2019-03-31T04:19:22.039Z,1018.08
2019-03-31T04:20:21.935Z,1018.05
2019-03-31T04:21:21.861Z,1018.07
2019-03-31T04:22:21.773Z,1018.08
2019-03-31T04:23:21.699Z,1018.11
2019-03-31T04:24:21.617Z,1018.10
2019-03-31T04:25:21.517Z,1018.09
2019-03-31T04:26:21.427Z,1018.14
2019-03-31T04:27:21.358Z,1018.15
2019-03-31T04:28:21.260Z,1018.18
2019-03-31T04:29:21.195Z,1018.22
2019-03-31T04:30:21.094Z,1018.28
2019-03-31T04:31:21.011Z,1018.28
2019-03-31T04:32:20.923Z,1018.32
2019-03-31T04:33:20.845Z,1018.31
2019-03-31T04:34:20.768Z,1018.34
2019-03-31T04:35:20.701Z,1018.26
2019-03-31T04:36:20.603Z,1018.29
2019-03-31T04:37:20.515Z,1018.30
2019-03-31T04:38:20.414Z,1018.30
2019-03-31T04:39:20.344Z,1018.25
2019-03-31T04:40:20.278Z,1018.26
2019-03-31T04:41:20.175Z,1018.29
2019-03-31T04:42:20.087Z,1018.29
2019-03-31T04:43:19.997Z,1018.34
2019-03-31T04:44:19.915Z,1018.33
2019-03-31T04:45:19.882Z,1018.34
2019-03-31T04:46:19.740Z,1018.37
2019-03-31T04:47:19.665Z,1018.39
2019-03-31T04:48:19.572Z,1018.37
2019-03-31T04:49:19.500Z,1018.33
2019-03-31T04:50:19.413Z,1018.33
2019-03-31T04:51:19.323Z,1018.36
2019-03-31T04:52:19.232Z,1018.39
2019-03-31T04:53:19.150Z,1018.36
2019-03-31T04:54:19.068Z,1018.38
2019-03-31T04:55:19.000Z,1018.32
2019-03-31T04:56:18.895Z,1018.35
2019-03-31T04:57:18.812Z,1018.38
2019-03-31T04:58:18.730Z,1018.39
2019-03-31T04:59:18.641Z,1018.42
2019-03-31T05:00:18.577Z,1018.44
2019-03-31T05:01:18.484Z,1018.42
2019-03-31T05:02:18.406Z,1018.43
2019-03-31T05:03:18.306Z,1018.46
2019-03-31T05:04:18.228Z,1018.47
2019-03-31T05:05:18.158Z,1018.45
2019-03-31T05:06:18.065Z,1018.44
2019-03-31T05:07:17.973Z,1018.46
2019-03-31T05:08:17.882Z,1018.47
2019-03-31T05:09:17.815Z,1018.51
2019-03-31T05:10:17.726Z,1018.56
2019-03-31T05:11:17.637Z,1018.52
2019-03-31T05:12:17.549Z,1018.58
2019-03-31T05:13:17.469Z,1018.56
2019-03-31T05:14:17.390Z,1018.56
2019-03-31T05:15:17.307Z,1018.56
2019-03-31T05:16:17.209Z,1018.55
2019-03-31T05:17:17.137Z,1018.59
2019-03-31T05:18:17.049Z,1018.62
2019-03-31T05:19:16.965Z,1018.61
2019-03-31T05:20:16.898Z,1018.57
2019-03-31T05:21:16.798Z,1018.62
2019-03-31T05:22:16.703Z,1018.62
2019-03-31T05:23:16.624Z,1018.59
2019-03-31T05:24:16.538Z,1018.62
2019-03-31T05:25:16.474Z,1018.64
2019-03-31T05:26:16.381Z,1018.68
2019-03-31T05:27:16.280Z,1018.70
2019-03-31T05:28:16.198Z,1018.70
2019-03-31T05:29:16.133Z,1018.70
2019-03-31T05:30:16.046Z,1018.73
2019-03-31T05:31:15.955Z,1018.70
2019-03-31T05:32:15.860Z,1018.74
2019-03-31T05:33:15.782Z,1018.80
2019-03-31T05:34:19.311Z,1018.82
2019-03-31T05:35:15.627Z,1018.83
2019-03-31T05:36:15.535Z,1018.85
2019-03-31T05:37:15.445Z,1018.85
2019-03-31T05:38:15.353Z,1018.88
2019-03-31T05:39:15.277Z,1018.91
2019-03-31T05:40:15.203Z,1018.95
2019-03-31T05:41:15.106Z,1018.97
2019-03-31T05:42:15.027Z,1018.95
2019-03-31T05:43:14.943Z,1018.96
2019-03-31T05:44:14.856Z,1018.99
2019-03-31T05:45:14.785Z,1018.97
2019-03-31T05:46:14.685Z,1019.01
2019-03-31T05:47:14.603Z,1018.98
2019-03-31T05:48:14.519Z,1019.01
2019-03-31T05:49:14.430Z,1019.01
2019-03-31T05:50:14.382Z,1019.00
2019-03-31T05:51:14.264Z,1019.03
2019-03-31T05:52:14.184Z,1019.06
2019-03-31T05:53:14.103Z,1019.07
2019-03-31T05:54:14.014Z,1019.10
2019-03-31T05:55:13.949Z,1019.04
2019-03-31T05:56:13.861Z,1019.10
2019-03-31T05:57:13.767Z,1019.15
2019-03-31T05:58:13.679Z,1019.11
2019-03-31T05:59:13.596Z,1019.09
2019-03-31T06:00:13.518Z,1019.12
2019-03-31T06:01:13.433Z,1019.10
2019-03-31T06:02:13.345Z,1019.13
2019-03-31T06:03:13.261Z,1019.17
2019-03-31T06:04:13.183Z,1019.17
2019-03-31T06:05:13.098Z,1019.10
2019-03-31T06:06:13.026Z,1019.15
2019-03-31T06:07:12.930Z,1019.16
2019-03-31T06:08:12.838Z,1019.20
2019-03-31T06:09:12.758Z,1019.17
2019-03-31T06:10:12.675Z,1019.17
2019-03-31T06:11:12.609Z,1019.22
2019-03-31T06:12:12.529Z,1019.19
2019-03-31T06:13:12.433Z,1019.22
2019-03-31T06:14:12.334Z,1019.27
2019-03-31T06:15:12.266Z,1019.30
2019-03-31T06:16:12.182Z,1019.30
2019-03-31T06:17:12.085Z,1019.30
2019-03-31T06:18:12.017Z,1019.32
2019-03-31T06:19:11.925Z,1019.36
2019-03-31T06:20:11.857Z,1019.40
2019-03-31T06:21:11.763Z,1019.40
2019-03-31T06:22:11.683Z,1019.43
2019-03-31T06:23:11.603Z,1019.44
2019-03-31T06:24:11.513Z,1019.43
2019-03-31T06:25:11.432Z,1019.41
2019-03-31T06:26:11.345Z,1019.45
2019-03-31T06:27:11.250Z,1019.43
2019-03-31T06:28:11.184Z,1019.44
2019-03-31T06:29:11.080Z,1019.49
2019-03-31T06:30:11.008Z,1019.49
2019-03-31T06:31:10.939Z,1019.55
2019-03-31T06:32:10.846Z,1019.58
2019-03-31T06:33:10.836Z,1019.62
2019-03-31T06:34:10.669Z,1019.64
2019-03-31T06:35:10.589Z,1019.61
2019-03-31T06:36:10.531Z,1019.63
2019-03-31T06:37:10.434Z,1019.58
2019-03-31T06:38:10.339Z,1019.51
2019-03-31T06:39:10.260Z,1019.57
2019-03-31T06:40:10.178Z,1019.63
2019-03-31T06:41:10.123Z,1019.63
2019-03-31T06:42:10.021Z,1019.73
2019-03-31T06:43:09.937Z,1019.80
2019-03-31T06:44:09.851Z,1019.80
2019-03-31T06:45:09.770Z,1019.78
2019-03-31T06:46:09.693Z,1019.82
2019-03-31T06:47:09.597Z,1019.80
2019-03-31T06:48:09.521Z,1019.72
2019-03-31T06:49:09.440Z,1019.72
2019-03-31T06:50:09.357Z,1019.73
2019-03-31T06:51:09.298Z,1019.69
2019-03-31T06:52:09.185Z,1019.70
2019-03-31T06:53:09.114Z,1019.73
2019-03-31T06:54:09.037Z,1019.71
2019-03-31T06:55:08.941Z,1019.70
2019-03-31T06:56:08.886Z,1019.74
2019-03-31T06:57:08.775Z,1019.78
2019-03-31T06:58:08.714Z,1019.78
2019-03-31T06:59:08.631Z,1019.83
2019-03-31T07:00:08.530Z,1019.81
2019-03-31T07:01:08.483Z,1019.85
2019-03-31T07:02:08.457Z,1019.83
2019-03-31T07:03:08.295Z,1019.83
2019-03-31T07:04:08.262Z,1019.85
2019-03-31T07:05:08.122Z,1019.90
2019-03-31T07:06:08.100Z,1019.89
2019-03-31T07:07:07.958Z,1019.89
2019-03-31T07:08:08.707Z,1019.90
2019-03-31T07:09:07.806Z,1019.91
2019-03-31T07:10:07.792Z,1019.99
2019-03-31T07:11:07.817Z,1020.00
2019-03-31T07:12:07.598Z,1020.04
2019-03-31T07:13:07.474Z,1020.10
2019-03-31T07:14:07.381Z,1020.09
2019-03-31T07:15:07.313Z,1020.15
2019-03-31T07:16:07.223Z,1020.19
2019-03-31T07:17:07.158Z,1020.24
2019-03-31T07:18:07.136Z,1020.35
2019-03-31T07:19:06.979Z,1020.46
2019-03-31T07:20:06.939Z,1020.49
2019-03-31T07:21:06.808Z,1020.63
2019-03-31T07:22:06.781Z,1020.71
2019-03-31T07:23:06.643Z,1020.80
2019-03-31T07:24:06.662Z,1020.73
2019-03-31T07:25:06.477Z,1020.88
2019-03-31T07:26:06.472Z,1020.95
2019-03-31T07:27:06.338Z,1021.07
2019-03-31T07:28:06.283Z,1021.01
2019-03-31T07:29:06.155Z,1021.09
2019-03-31T07:30:07.273Z,1021.07
2019-03-31T07:31:05.997Z,1021.08
2019-03-31T07:32:05.926Z,1020.94
2019-03-31T07:33:05.826Z,1020.91
2019-03-31T07:34:05.819Z,1020.75
2019-03-31T07:35:17.866Z,1020.67
2019-03-31T07:36:05.597Z,1020.62
2019-03-31T07:37:05.562Z,1020.65
2019-03-31T07:38:05.424Z,1020.57
2019-03-31T07:39:05.376Z,1020.55
2019-03-31T07:40:05.324Z,1020.51
2019-03-31T07:41:12.670Z,1020.48
2019-03-31T07:42:05.382Z,1020.37
2019-03-31T07:43:05.060Z,1020.40
2019-03-31T07:44:04.948Z,1020.38
2019-03-31T07:45:05.022Z,1020.32
2019-03-31T07:46:04.823Z,1020.40
2019-03-31T07:47:04.803Z,1020.45
2019-03-31T07:48:07.994Z,1020.45
2019-03-31T07:49:04.580Z,1020.41
2019-03-31T07:50:07.238Z,1020.41
2019-03-31T07:51:04.390Z,1020.39
2019-03-31T07:52:04.295Z,1020.40
2019-03-31T07:53:04.403Z,1020.40
2019-03-31T07:54:04.138Z,1020.36
2019-03-31T07:55:04.052Z,1020.38
2019-03-31T07:56:04.115Z,1020.36
2019-03-31T07:57:06.841Z,1020.32
2019-03-31T07:58:03.792Z,1020.40
2019-03-31T07:59:03.870Z,1020.39
2019-03-31T08:00:03.811Z,1020.37
2019-03-31T08:01:03.644Z,1020.35
2019-03-31T08:02:03.484Z,1020.35
2019-03-31T08:03:03.450Z,1020.37
2019-03-31T08:04:03.302Z,1020.40
2019-03-31T08:05:03.258Z,1020.38
2019-03-31T08:06:03.159Z,1020.35
2019-03-31T08:07:03.169Z,1020.40
2019-03-31T08:08:03.006Z,1020.48
2019-03-31T08:09:02.983Z,1020.39
2019-03-31T08:10:02.820Z,1020.46
2019-03-31T08:11:02.784Z,1020.48
2019-03-31T08:12:02.651Z,1020.41
2019-03-31T08:13:02.594Z,1020.51
2019-03-31T08:14:02.489Z,1020.42
2019-03-31T08:15:02.546Z,1020.49
2019-03-31T08:16:02.319Z,1020.50
2019-03-31T08:17:02.239Z,1020.53
2019-03-31T08:18:02.172Z,1020.52
2019-03-31T08:19:02.078Z,1020.48
2019-03-31T08:20:02.131Z,1020.51
2019-03-31T08:21:01.914Z,1020.50
2019-03-31T08:22:01.820Z,1020.47
2019-03-31T08:23:01.780Z,1020.51
2019-03-31T08:24:01.674Z,1020.50
2019-03-31T08:25:01.585Z,1020.51
2019-03-31T08:26:01.550Z,1020.52
2019-03-31T08:27:01.409Z,1020.48
2019-03-31T08:28:01.406Z,1020.50
2019-03-31T08:29:01.235Z,1020.56
2019-03-31T08:30:01.498Z,1020.61
2019-03-31T08:31:01.186Z,1020.60
2019-03-31T08:32:01.005Z,1020.58
2019-03-31T08:33:00.927Z,1020.57
2019-03-31T08:34:00.999Z,1020.59
2019-03-31T08:35:00.737Z,1020.64
2019-03-31T08:36:00.808Z,1020.73
2019-03-31T08:37:00.569Z,1020.69
2019-03-31T08:38:00.660Z,1020.70
2019-03-31T08:39:00.416Z,1020.73
2019-03-31T08:40:00.423Z,1020.78
2019-03-31T08:41:00.249Z,1020.72
2019-03-31T08:42:08.211Z,1020.78
2019-03-31T08:43:00.102Z,1020.80
2019-03-31T08:44:00.044Z,1020.85
2019-03-31T08:45:00.349Z,1020.82
2019-03-31T08:46:00.065Z,1020.84
2019-03-31T08:46:59.753Z,1020.83
2019-03-31T08:47:59.900Z,1020.83
2019-03-31T08:48:59.572Z,1020.85
2019-03-31T08:50:02.173Z,1020.88
2019-03-31T08:50:59.418Z,1020.88
2019-03-31T08:51:59.487Z,1020.91
2019-03-31T08:52:59.256Z,1020.90
2019-03-31T08:53:59.167Z,1020.92
2019-03-31T08:54:59.303Z,1020.96
2019-03-31T08:55:58.998Z,1020.92
2019-03-31T08:56:58.903Z,1020.90
2019-03-31T08:57:58.948Z,1020.89
2019-03-31T08:58:58.754Z,1020.90
2019-03-31T08:59:58.655Z,1020.84
2019-03-31T09:00:58.585Z,1020.88
2019-03-31T09:01:58.530Z,1020.83
2019-03-31T09:02:58.423Z,1020.83
2019-03-31T09:03:58.330Z,1020.85
2019-03-31T09:04:58.243Z,1020.86
2019-03-31T09:06:02.074Z,1020.90
2019-03-31T09:06:58.079Z,1020.90
2019-03-31T09:07:58.105Z,1020.91
2019-03-31T09:08:57.902Z,1020.92
2019-03-31T09:09:57.867Z,1020.94
2019-03-31T09:10:57.750Z,1020.91
2019-03-31T09:11:57.679Z,1020.92
2019-03-31T09:12:57.586Z,1020.89
2019-03-31T09:13:57.595Z,1020.92
2019-03-31T09:14:57.400Z,1020.90
2019-03-31T09:15:57.398Z,1020.92
2019-03-31T09:16:57.244Z,1020.91
2019-03-31T09:17:59.188Z,1020.91
2019-03-31T09:18:57.071Z,1020.88
2019-03-31T09:19:57.044Z,1020.92
2019-03-31T09:20:56.922Z,1020.90
2019-03-31T09:21:56.824Z,1020.96
2019-03-31T09:22:56.758Z,1020.88
2019-03-31T09:23:57.677Z,1020.90
2019-03-31T09:24:56.575Z,1020.89
2019-03-31T09:25:56.666Z,1020.90
2019-03-31T09:26:56.408Z,1020.91
2019-03-31T09:27:56.395Z,1020.86
2019-03-31T09:28:56.228Z,1020.92
2019-03-31T09:29:56.149Z,1020.95
2019-03-31T09:30:56.191Z,1021.01
2019-03-31T09:31:55.989Z,1020.98
2019-03-31T09:32:55.923Z,1021.00
2019-03-31T09:33:55.914Z,1020.96
2019-03-31T09:34:56.602Z,1021.03
2019-03-31T09:36:14.895Z,1020.97
2019-03-31T09:36:55.728Z,1021.03
2019-03-31T09:37:55.475Z,1021.01
2019-03-31T09:38:55.410Z,1021.07
2019-03-31T09:39:55.534Z,1021.06
2019-03-31T09:40:55.227Z,1021.07
2019-03-31T09:41:56.673Z,1021.04
2019-03-31T09:42:55.096Z,1021.06
2019-03-31T09:43:54.998Z,1021.03
2019-03-31T09:44:54.893Z,1021.04
2019-03-31T09:45:54.920Z,1021.00
2019-03-31T09:46:54.730Z,1021.05
2019-03-31T09:47:54.640Z,1021.06
2019-03-31T09:48:54.757Z,1021.10
2019-03-31T09:49:54.472Z,1021.06
2019-03-31T09:50:56.549Z,1021.09
2019-03-31T09:51:54.338Z,1021.08
2019-03-31T09:52:54.230Z,1021.15
2019-03-31T09:53:54.214Z,1021.13
2019-03-31T09:54:54.055Z,1021.16
2019-03-31T09:55:54.174Z,1021.18
2019-03-31T09:56:54.622Z,1021.18
2019-03-31T09:57:55.575Z,1021.22
2019-03-31T09:58:58.086Z,1021.22
2019-03-31T10:00:01.303Z,1021.27
2019-03-31T10:00:57.075Z,1021.26
2019-03-31T10:01:58.078Z,1021.27
2019-03-31T10:03:01.024Z,1021.34
2019-03-31T10:04:38.115Z,1021.29
2019-03-31T10:04:53.220Z,1021.28
2019-03-31T10:05:53.141Z,1021.30
2019-03-31T10:06:53.216Z,1021.38
2019-03-31T10:07:52.975Z,1021.33
2019-03-31T10:08:52.901Z,1021.37
2019-03-31T10:09:53.023Z,1021.39
2019-03-31T10:10:52.722Z,1021.42
2019-03-31T10:11:52.639Z,1021.47
2019-03-31T10:12:52.633Z,1021.44
2019-03-31T10:13:52.483Z,1021.47
2019-03-31T10:14:54.279Z,1021.51
2019-03-31T10:15:52.447Z,1021.52
2019-03-31T10:16:52.219Z,1021.52
2019-03-31T10:17:52.259Z,1021.51
2019-03-31T10:18:52.106Z,1021.44
2019-03-31T10:19:52.069Z,1021.46
2019-03-31T10:20:51.885Z,1021.51
2019-03-31T10:21:51.873Z,1021.53
2019-03-31T10:22:51.730Z,1021.46
2019-03-31T10:23:51.719Z,1021.50
2019-03-31T10:24:51.551Z,1021.49
2019-03-31T10:25:51.481Z,1021.50
2019-03-31T10:26:51.564Z,1021.48
2019-03-31T10:27:51.302Z,1021.48
2019-03-31T10:28:51.230Z,1021.51
2019-03-31T10:29:51.378Z,1021.49
2019-03-31T10:30:51.054Z,1021.48
2019-03-31T10:31:51.178Z,1021.49
2019-03-31T10:32:50.883Z,1021.51
2019-03-31T10:33:50.960Z,1021.49
2019-03-31T10:34:50.726Z,1021.49
2019-03-31T10:35:50.645Z,1021.54
2019-03-31T10:36:50.745Z,1021.51
2019-03-31T10:37:50.468Z,1021.52
2019-03-31T10:38:50.400Z,1021.55
2019-03-31T10:39:50.356Z,1021.57
2019-03-31T10:40:50.217Z,1021.58
2019-03-31T10:41:50.142Z,1021.58
2019-03-31T10:42:50.171Z,1021.58
2019-03-31T10:43:49.984Z,1021.57
2019-03-31T10:44:49.888Z,1021.64
2019-03-31T10:45:49.985Z,1021.60
2019-03-31T10:46:49.731Z,1021.58
2019-03-31T10:47:49.655Z,1021.61
2019-03-31T10:48:49.626Z,1021.65
2019-03-31T10:49:49.473Z,1021.59
2019-03-31T10:50:49.392Z,1021.61
2019-03-31T10:51:49.411Z,1021.68
2019-03-31T10:52:49.234Z,1021.62
2019-03-31T10:53:49.172Z,1021.63
2019-03-31T10:54:49.224Z,1021.67
2019-03-31T10:55:48.976Z,1021.65
2019-03-31T10:56:48.894Z,1021.71
2019-03-31T10:57:48.834Z,1021.70
2019-03-31T11:12:14.679Z,1021.78
2019-03-31T11:12:35.903Z,1021.75
2019-03-31T11:13:35.950Z,1021.79
2019-03-31T11:14:35.750Z,1021.78
2019-03-31T11:15:35.755Z,1021.79
2019-03-31T11:16:35.578Z,1021.81
2019-03-31T11:17:35.562Z,1021.78
2019-03-31T11:18:35.406Z,1021.79
2019-03-31T11:19:35.489Z,1021.82
2019-03-31T11:20:35.243Z,1021.90
2019-03-31T11:21:35.179Z,1021.90
2019-03-31T11:22:35.081Z,1021.85
2019-03-31T11:23:35.191Z,1021.90
2019-03-31T11:24:34.930Z,1021.92
2019-03-31T11:25:35.002Z,1021.90
2019-03-31T11:26:34.753Z,1021.92
2019-03-31T11:27:34.813Z,1021.91
2019-03-31T11:28:34.587Z,1021.94
2019-03-31T11:29:34.653Z,1021.93
2019-03-31T11:30:34.419Z,1021.88
2019-03-31T11:31:34.428Z,1021.99
2019-03-31T11:32:34.262Z,1021.93
2019-03-31T11:33:34.253Z,1022.01
2019-03-31T11:34:34.127Z,1022.04
2019-03-31T11:35:34.048Z,1022.06
2019-03-31T11:36:33.932Z,1022.11
2019-03-31T11:37:33.852Z,1022.09
2019-03-31T11:38:33.858Z,1022.04
2019-03-31T11:39:33.704Z,1022.18
2019-03-31T11:40:33.608Z,1022.20
2019-03-31T11:41:33.678Z,1022.21
2019-03-31T11:42:33.445Z,1022.21
2019-03-31T11:43:33.365Z,1022.20
2019-03-31T11:44:33.320Z,1022.14
2019-03-31T11:45:33.203Z,1022.16
2019-03-31T11:46:33.120Z,1022.18
2019-03-31T11:47:33.099Z,1022.20
2019-03-31T11:48:32.959Z,1022.10
2019-03-31T11:49:32.940Z,1022.04
2019-03-31T11:50:32.798Z,1021.98
2019-03-31T11:51:32.925Z,1021.96
2019-03-31T11:52:32.639Z,1021.93
2019-03-31T11:53:32.730Z,1021.94
2019-03-31T11:54:32.489Z,1021.95
2019-03-31T11:55:32.541Z,1021.88
2019-03-31T11:56:32.314Z,1021.92
2019-03-31T11:57:32.347Z,1021.90
2019-03-31T11:58:32.503Z,1022.02
2019-03-31T11:59:32.188Z,1021.96
2019-03-31T12:00:31.993Z,1022.32
2019-03-31T12:01:31.916Z,1022.17
2019-03-31T12:02:31.856Z,1022.29
2019-03-31T12:03:31.876Z,1022.41
2019-03-31T12:04:31.687Z,1022.15
2019-03-31T12:05:31.684Z,1022.21
2019-03-31T12:06:31.509Z,1022.32
2019-03-31T12:07:45.720Z,1022.20
2019-03-31T12:08:31.349Z,1022.21
2019-03-31T12:09:31.334Z,1022.20
2019-03-31T12:10:31.191Z,1022.13
2019-03-31T12:11:31.314Z,1022.17
2019-03-31T12:12:31.036Z,1022.15
2019-03-31T12:13:30.968Z,1022.13
2019-03-31T12:14:31.162Z,1022.03
2019-03-31T12:15:30.795Z,1022.11
2019-03-31T12:16:30.717Z,1022.15
2019-03-31T12:17:30.740Z,1022.07
2019-03-31T12:18:30.559Z,1022.03
2019-03-31T12:19:30.578Z,1021.99
2019-03-31T12:20:30.403Z,1022.08
2019-03-31T12:21:30.358Z,1022.04
2019-03-31T12:22:30.251Z,1022.11
2019-03-31T12:23:30.171Z,1022.03
2019-03-31T12:24:30.178Z,1022.00
2019-03-31T12:25:30.030Z,1022.04
2019-03-31T12:26:29.940Z,1021.98
2019-03-31T12:27:30.383Z,1021.90
2019-03-31T12:28:29.783Z,1021.87
2019-03-31T12:29:29.718Z,1021.85
2019-03-31T12:30:29.641Z,1021.91
2019-03-31T12:31:29.616Z,1021.89
2019-03-31T12:32:29.467Z,1021.87
2019-03-31T12:33:29.412Z,1021.81
2019-03-31T12:34:29.314Z,1021.88
2019-03-31T12:35:29.457Z,1021.87
2019-03-31T12:36:29.157Z,1021.76
2019-03-31T12:37:41.578Z,1021.74
2019-03-31T12:38:29.038Z,1021.75
2019-03-31T12:39:28.925Z,1021.72
2019-03-31T12:40:28.861Z,1021.73
2019-03-31T12:41:28.853Z,1021.76
2019-03-31T12:42:28.701Z,1021.76
2019-03-31T12:43:28.615Z,1021.71
2019-03-31T12:44:28.668Z,1021.82
2019-03-31T12:45:28.476Z,1021.69
2019-03-31T12:46:28.392Z,1021.74
2019-03-31T12:47:28.482Z,1021.68
2019-03-31T12:48:31.462Z,1021.79
2019-03-31T12:49:28.180Z,1021.77
2019-03-31T12:50:28.116Z,1021.87
2019-03-31T12:51:28.098Z,1021.82
2019-03-31T12:52:27.924Z,1021.78